Time;durP1;ratioP1;P1;durP2;ratioP2;P2;SDS_P1;SDS_P2;PMS_P1;PMS_P2;Temp;Humidity;BMP_temperature;BMP_pressure;BME280_temperature;BME280_humidity;BME280_pressure;Samples;Min_cycle;Max_cycle;Signal;HPM_P1;HPM_P2
2021/01/21 00:00:06;;;;;;;0.32;0.10;;;11.90;82.80;;;;;;6219480;22;20012;-90
2021/01/21 00:02:32;;;;;;;0.00;0.00;;;11.90;82.80;;;;;;6221125;23;20131;-91
2021/01/21 00:04:58;;;;;;;0.43;0.35;;;12.00;82.80;;;;;;6246983;23;20003;-90
2021/01/21 00:07:25;;;;;;;0.45;0.10;;;11.90;82.80;;;;;;6195398;23;20000;-90
2021/01/21 00:09:51;;;;;;;0.73;0.13;;;12.00;82.80;;;;;;6220030;23;20015;-91
2021/01/21 00:12:17;;;;;;;10.75;0.52;;;12.00;82.80;;;;;;6221368;23;19992;-90
2021/01/21 00:14:44;;;;;;;0.60;0.25;;;12.00;82.80;;;;;;6220998;23;20000;-91
2021/01/21 00:17:10;;;;;;;3.92;0.70;;;12.00;82.80;;;;;;6246403;22;20020;-90
2021/01/21 00:19:36;;;;;;;0.35;0.28;;;12.00;82.80;;;;;;6195755;23;20004;-92
2021/01/21 00:22:03;;;;;;;0.00;0.00;;;12.00;82.80;;;;;;6195392;23;20011;-91
2021/01/21 00:24:29;;;;;;;1.30;0.88;;;12.10;82.80;;;;;;6221725;23;20256;-90
2021/01/21 00:26:55;;;;;;;0.00;0.00;;;12.10;82.70;;;;;;6221106;23;19993;-92
2021/01/21 00:29:22;;;;;;;0.30;0.08;;;12.10;82.70;;;;;;6246128;23;19996;-92
2021/01/21 00:31:49;;;;;;;0.80;0.52;;;12.10;82.80;;;;;;6247429;22;20056;-91
2021/01/21 00:34:15;;;;;;;0.30;0.20;;;12.10;82.90;;;;;;6247430;23;20003;-91
2021/01/21 00:36:42;;;;;;;0.08;0.05;;;12.10;82.80;;;;;;6195203;23;19996;-91
2021/01/21 00:39:08;;;;;;;0.05;0.00;;;12.10;83.00;;;;;;6246739;23;19996;-91
2021/01/21 00:41:34;;;;;;;0.00;0.00;;;12.10;83.00;;;;;;6221151;23;20001;-89
2021/01/21 00:44:01;;;;;;;0.00;0.00;;;12.10;82.90;;;;;;6246562;23;20063;-92
2021/01/21 00:46:28;;;;;;;0.00;0.00;;;12.10;83.00;;;;;;6245022;22;20030;-91
2021/01/21 00:48:55;;;;;;;0.00;0.00;;;12.10;83.10;;;;;;6244767;23;20264;-91
2021/01/21 00:51:23;;;;;;;0.10;0.00;;;12.00;83.20;;;;;;6195427;23;20011;-90
2021/01/21 00:53:49;;;;;;;0.20;0.05;;;12.00;83.30;;;;;;6196491;23;20387;-91
2021/01/21 00:56:15;;;;;;;0.22;0.08;;;12.00;83.40;;;;;;6245854;23;19996;-90
2021/01/21 00:58:42;;;;;;;0.00;0.00;;;12.00;83.50;;;;;;6246084;23;20028;-88
2021/01/21 01:01:08;;;;;;;0.00;0.00;;;12.00;83.50;;;;;;6219726;23;20406;-91
2021/01/21 01:03:35;;;;;;;0.00;0.00;;;12.00;83.60;;;;;;6219511;23;20012;-90
2021/01/21 01:06:05;;;;;;;1.35;0.45;;;12.00;83.70;;;;;;6247773;23;19996;-89
2021/01/21 01:08:34;;;;;;;0.10;0.00;;;11.90;83.60;;;;;;6220884;23;20004;-89
2021/01/21 01:11:01;;;;;;;0.00;0.00;;;11.90;83.70;;;;;;6220574;23;20007;-89
2021/01/21 01:13:27;;;;;;;0.38;0.00;;;11.90;83.80;;;;;;6248284;23;20023;-89
2021/01/21 01:15:54;;;;;;;0.00;0.00;;;11.90;84.00;;;;;;6193547;23;20280;-87
2021/01/21 01:18:20;;;;;;;0.00;0.00;;;11.90;84.00;;;;;;6221209;23;20375;-90
2021/01/21 01:20:48;;;;;;;0.25;0.20;;;11.90;84.00;;;;;;6269875;22;20000;-89
2021/01/21 01:23:15;;;;;;;0.00;0.00;;;11.90;84.10;;;;;;6195027;23;19996;-89
2021/01/21 01:25:41;;;;;;;0.00;0.00;;;11.90;84.20;;;;;;6194265;23;19996;-88
2021/01/21 01:28:07;;;;;;;0.00;0.00;;;11.80;84.30;;;;;;6195232;23;20004;-89
2021/01/21 01:30:34;;;;;;;0.00;0.00;;;11.80;84.50;;;;;;6245810;23;20008;-89
2021/01/21 01:33:00;;;;;;;0.00;0.00;;;11.80;84.50;;;;;;6219592;23;20292;-87
2021/01/21 01:35:27;;;;;;;0.00;0.00;;;11.70;84.60;;;;;;6220799;23;20248;-89
2021/01/21 01:37:53;;;;;;;0.00;0.00;;;11.60;84.80;;;;;;6220279;23;20004;-88
2021/01/21 01:40:19;;;;;;;0.00;0.00;;;11.50;85.10;;;;;;6245624;23;19996;-90
2021/01/21 01:42:46;;;;;;;0.00;0.00;;;11.30;85.40;;;;;;6245079;23;20003;-89
2021/01/21 01:45:13;;;;;;;0.00;0.00;;;11.20;85.60;;;;;;6219386;22;19996;-91
2021/01/21 01:47:41;;;;;;;0.00;0.00;;;11.10;85.80;;;;;;6246427;23;19997;-90
2021/01/21 01:50:09;;;;;;;0.00;0.00;;;11.00;86.10;;;;;;6247105;23;19997;-87
2021/01/21 01:52:41;;;;;;;0.00;0.00;;;11.00;86.20;;;;;;6220431;23;19996;-90
2021/01/21 01:55:18;;;;;;;0.00;0.00;;;10.90;86.30;;;;;;6246776;23;20000;-88
2021/01/21 01:57:50;;;;;;;0.00;0.00;;;10.80;86.40;;;;;;6220928;23;20000;-89
2021/01/21 02:00:19;;;;;;;0.00;0.00;;;10.80;86.50;;;;;;6246111;22;20012;-89
2021/01/21 02:02:49;;;;;;;0.00;0.00;;;10.70;86.40;;;;;;6269455;22;19996;-91
2021/01/21 02:05:16;;;;;;;0.00;0.00;;;10.70;86.50;;;;;;6194671;23;20019;-88
2021/01/21 02:07:43;;;;;;;0.00;0.00;;;10.60;86.40;;;;;;6219358;23;20004;-89
2021/01/21 02:10:13;;;;;;;0.15;0.00;;;10.60;86.50;;;;;;6219953;23;20004;-88
2021/01/21 02:13:11;;;;;;;0.00;0.00;;;10.50;86.50;;;;;;6195445;23;20007;-87
2021/01/21 02:16:08;;;;;;;0.00;0.00;;;10.50;86.50;;;;;;6247964;22;20268;-89
2021/01/21 02:18:42;;;;;;;0.00;0.00;;;10.40;86.40;;;;;;6246196;23;20006;-89
2021/01/21 02:21:46;;;;;;;0.00;0.00;;;10.40;86.40;;;;;;6223900;23;20007;-91
2021/01/21 02:24:31;;;;;;;1.27;0.20;;;10.40;86.40;;;;;;6248890;23;19992;-89
2021/01/21 02:26:58;;;;;;;0.00;0.00;;;10.30;86.30;;;;;;6221258;23;20128;-89
2021/01/21 02:29:31;;;;;;;0.00;0.00;;;10.20;86.30;;;;;;6247148;23;20268;-90
2021/01/21 02:32:06;;;;;;;0.00;0.00;;;10.20;86.40;;;;;;6245932;23;20043;-90
2021/01/21 02:34:40;;;;;;;0.57;0.45;;;10.10;86.50;;;;;;6249194;23;20007;-89
2021/01/21 02:37:10;;;;;;;0.00;0.00;;;10.00;86.60;;;;;;6222001;23;20004;-90
2021/01/21 02:39:36;;;;;;;0.00;0.00;;;10.00;86.60;;;;;;6196453;23;20272;-90
2021/01/21 02:42:06;;;;;;;0.20;0.20;;;9.90;86.70;;;;;;6221545;23;19992;-89
2021/01/21 02:44:32;;;;;;;0.00;0.00;;;9.90;86.80;;;;;;6221771;23;20001;-92
2021/01/21 02:46:58;;;;;;;0.00;0.00;;;9.80;86.90;;;;;;6221854;23;20273;-89
2021/01/21 02:49:25;;;;;;;0.00;0.00;;;9.80;87.00;;;;;;6247591;23;20364;-91
2021/01/21 02:52:33;;;;;;;0.00;0.00;;;9.80;87.10;;;;;;6221850;23;20005;-89
2021/01/21 02:55:12;;;;;;;6.13;0.20;;;9.70;87.00;;;;;;6247586;23;19996;-89
2021/01/21 02:58:07;;;;;;;0.00;0.00;;;9.60;87.00;;;;;;6224883;23;20007;-88
2021/01/21 03:00:43;;;;;;;0.00;0.00;;;9.60;87.00;;;;;;6213525;22;20071;-90
2021/01/21 03:03:16;;;;;;;0.10;0.00;;;9.60;87.00;;;;;;6242672;23;20001;-90
2021/01/21 03:05:43;;;;;;;0.00;0.00;;;9.60;87.00;;;;;;6244586;23;20007;-89
2021/01/21 03:08:09;;;;;;;0.00;0.00;;;9.60;86.80;;;;;;6221584;23;20000;-90
2021/01/21 03:10:36;;;;;;;0.00;0.00;;;9.60;86.70;;;;;;6246202;23;20379;-89
2021/01/21 03:13:02;;;;;;;0.00;0.00;;;9.60;86.60;;;;;;6221130;23;20004;-90
2021/01/21 03:15:29;;;;;;;0.00;0.00;;;9.60;86.60;;;;;;6243764;23;20008;-91
2021/01/21 03:17:55;;;;;;;0.00;0.00;;;9.60;86.60;;;;;;6219377;23;20027;-89
2021/01/21 03:20:21;;;;;;;7.55;1.30;;;9.50;86.70;;;;;;6246903;23;20004;-89
2021/01/21 03:22:48;;;;;;;0.30;0.20;;;9.50;86.80;;;;;;6245553;23;20003;-89
2021/01/21 03:25:14;;;;;;;0.00;0.00;;;9.40;86.80;;;;;;6245430;23;20000;-88
2021/01/21 03:27:40;;;;;;;0.00;0.00;;;9.40;86.90;;;;;;6245995;23;20007;-88
2021/01/21 03:30:08;;;;;;;0.00;0.00;;;9.40;87.00;;;;;;6244294;22;19993;-90
2021/01/21 03:32:37;;;;;;;1.23;0.00;;;9.30;86.90;;;;;;6221704;23;20000;-89
2021/01/21 03:35:04;;;;;;;0.00;0.00;;;9.30;86.90;;;;;;6246450;23;20055;-88
2021/01/21 03:37:31;;;;;;;0.00;0.00;;;9.30;86.90;;;;;;6221413;23;20000;-90
2021/01/21 03:39:57;;;;;;;0.00;0.00;;;9.30;86.90;;;;;;6247675;23;20000;-88
2021/01/21 03:42:24;;;;;;;0.00;0.00;;;9.30;86.80;;;;;;6220215;23;20055;-88
2021/01/21 03:44:50;;;;;;;0.00;0.00;;;9.30;86.80;;;;;;6246297;23;20004;-88
2021/01/21 03:47:16;;;;;;;0.00;0.00;;;9.30;86.70;;;;;;6221113;23;20015;-89
2021/01/21 03:49:43;;;;;;;0.00;0.00;;;9.20;86.70;;;;;;6245255;23;20012;-88
2021/01/21 03:52:09;;;;;;;0.00;0.00;;;9.20;86.70;;;;;;6221877;23;20020;-89
2021/01/21 03:54:35;;;;;;;0.00;0.00;;;9.20;86.70;;;;;;6247704;23;20384;-89
2021/01/21 03:57:02;;;;;;;0.00;0.00;;;9.20;86.70;;;;;;6220844;23;20280;-89
2021/01/21 03:59:28;;;;;;;0.00;0.00;;;9.20;86.60;;;;;;6220694;23;20012;-89
2021/01/21 04:01:54;;;;;;;0.40;0.30;;;9.20;86.60;;;;;;6195302;23;20000;-89
2021/01/21 04:04:21;;;;;;;0.00;0.00;;;9.20;86.50;;;;;;6220596;23;20009;-90
2021/01/21 04:06:47;;;;;;;0.00;0.00;;;9.20;86.40;;;;;;6222574;23;20003;-90
2021/01/21 04:09:13;;;;;;;0.00;0.00;;;9.20;86.40;;;;;;6247820;23;20376;-90
2021/01/21 04:11:40;;;;;;;0.00;0.00;;;9.20;86.40;;;;;;6246814;23;20271;-90
2021/01/21 04:14:06;;;;;;;0.20;0.20;;;9.20;86.40;;;;;;6221760;23;19997;-89
2021/01/21 04:16:32;;;;;;;0.10;0.05;;;9.20;86.40;;;;;;6220764;23;20020;-88
2021/01/21 04:18:59;;;;;;;13.90;0.28;;;9.20;86.30;;;;;;6245764;23;20008;-89
2021/01/21 04:21:25;;;;;;;0.00;0.00;;;9.20;86.30;;;;;;6267448;23;19998;-89
2021/01/21 04:23:54;;;;;;;0.00;0.00;;;9.20;86.20;;;;;;6243699;22;19996;-89
2021/01/21 04:26:21;;;;;;;1.38;0.10;;;9.20;86.30;;;;;;6245922;22;20164;-88
2021/01/21 04:28:47;;;;;;;0.00;0.00;;;9.10;86.30;;;;;;6271686;22;20048;-87
2021/01/21 04:31:13;;;;;;;0.32;0.00;;;9.10;86.40;;;;;;6216427;23;19997;-88
2021/01/21 04:33:39;;;;;;;3.20;0.30;;;9.00;86.50;;;;;;6246242;22;20036;-89
2021/01/21 04:36:06;;;;;;;0.00;0.00;;;9.00;86.60;;;;;;6246326;22;20055;-90
2021/01/21 04:38:32;;;;;;;4.68;0.10;;;9.00;86.70;;;;;;6246658;22;20000;-91
2021/01/21 04:40:59;;;;;;;0.00;0.00;;;9.00;86.70;;;;;;6271925;22;20052;-88
2021/01/21 04:43:25;;;;;;;0.00;0.00;;;9.00;86.70;;;;;;6270246;22;20044;-90
2021/01/21 04:45:52;;;;;;;0.00;0.00;;;8.90;86.60;;;;;;6262872;22;20004;-88
2021/01/21 04:48:18;;;;;;;0.00;0.00;;;8.90;86.70;;;;;;6223731;23;20375;-88
2021/01/21 04:50:44;;;;;;;3.63;0.32;;;9.00;86.70;;;;;;6222630;23;20188;-90
2021/01/21 04:53:11;;;;;;;0.00;0.00;;;8.90;86.70;;;;;;6222852;23;20007;-92
2021/01/21 04:55:41;;;;;;;0.00;0.00;;;8.90;86.80;;;;;;6222340;23;20011;-90
2021/01/21 04:58:13;;;;;;;0.35;0.10;;;8.80;86.70;;;;;;6221884;23;20306;-88
2021/01/21 05:00:40;;;;;;;0.35;0.15;;;8.80;86.80;;;;;;6244262;23;20023;-89
2021/01/21 05:03:06;;;;;;;0.00;0.00;;;8.80;86.80;;;;;;6221118;23;20023;-90
2021/01/21 05:05:33;;;;;;;0.00;0.00;;;8.80;86.80;;;;;;6221503;23;19992;-90
2021/01/21 05:07:59;;;;;;;0.00;0.00;;;8.80;86.80;;;;;;6221130;23;20011;-88
2021/01/21 05:10:26;;;;;;;0.00;0.00;;;8.80;86.80;;;;;;6246091;23;19999;-90
2021/01/21 05:12:52;;;;;;;0.00;0.00;;;8.70;86.80;;;;;;6245953;23;19992;-91
2021/01/21 05:15:19;;;;;;;0.00;0.00;;;8.70;86.80;;;;;;6246618;22;20375;-89
2021/01/21 05:17:45;;;;;;;0.88;0.30;;;8.70;86.80;;;;;;6221720;23;19998;-90
2021/01/21 05:20:11;;;;;;;0.00;0.00;;;8.70;86.70;;;;;;6221508;23;20260;-91
2021/01/21 05:22:39;;;;;;;0.00;0.00;;;8.70;86.70;;;;;;6195595;23;19996;-92
2021/01/21 05:25:06;;;;;;;0.10;0.00;;;8.70;86.80;;;;;;6220681;23;19993;-90
2021/01/21 05:27:32;;;;;;;0.00;0.00;;;8.70;86.80;;;;;;6219956;23;20427;-90
2021/01/21 05:30:02;;;;;;;8.32;0.50;;;8.70;86.80;;;;;;6245422;23;19996;-91
2021/01/21 05:32:28;;;;;;;0.98;0.30;;;8.70;86.80;;;;;;6219747;23;20011;-91
2021/01/21 05:34:55;;;;;;;1.00;0.22;;;8.60;86.80;;;;;;6220796;23;20000;-90
2021/01/21 05:37:21;;;;;;;0.40;0.30;;;8.60;86.80;;;;;;6220245;23;20015;-89
2021/01/21 05:39:47;;;;;;;0.17;0.15;;;8.60;86.90;;;;;;6220063;23;20368;-91
2021/01/21 05:42:14;;;;;;;0.15;0.00;;;8.50;86.90;;;;;;6194365;23;20011;-89
2021/01/21 05:44:40;;;;;;;0.00;0.00;;;8.50;86.90;;;;;;6220100;23;20011;-89
2021/01/21 05:47:09;;;;;;;0.22;0.00;;;8.50;86.90;;;;;;6220364;23;20027;-89
2021/01/21 05:49:35;;;;;;;0.00;0.00;;;8.50;86.90;;;;;;6220930;23;19997;-90
2021/01/21 05:52:02;;;;;;;0.00;0.00;;;8.50;86.90;;;;;;6195587;23;19996;-92
2021/01/21 05:54:29;;;;;;;0.00;0.00;;;8.50;86.80;;;;;;6196320;23;20190;-93
2021/01/21 05:57:05;;;;;;;1.27;0.20;;;8.50;86.80;;;;;;6248643;23;20260;-91
2021/01/21 05:59:48;;;;;;;0.10;0.08;;;8.60;87.60;;;;;;6174754;23;20013;-93
2021/01/21 06:02:24;;;;;;;0.00;0.00;;;8.50;86.70;;;;;;6130174;23;20006;-92
2021/01/21 06:04:50;;;;;;;2.28;0.00;;;8.50;86.70;;;;;;6146158;23;20004;-91
2021/01/21 06:10:19;;;;;;;0.10;0.00;;;8.50;86.70;;;;;;6189709;23;20015;-92
2021/01/21 06:13:09;;;;;;;0.10;0.10;;;8.50;86.70;;;;;;6171969;23;20001;-92
2021/01/21 06:15:48;;;;;;;;;;;;;;;;;;;;;
2021/01/21 06:18:18;;;;;;;0.00;0.00;;;8.50;86.60;;;;;;6182788;23;20008;-92
2021/01/21 06:24:36;;;;;;;;;;;;;;;;;;;;;
2021/01/21 06:27:04;;;;;;;0.00;0.00;;;8.40;86.50;;;;;;6098569;23;20010;-92
2021/01/21 06:29:41;;;;;;;0.00;0.00;;;8.50;86.60;;;;;;6142190;23;20004;-91
2021/01/21 06:32:12;;;;;;;1.17;0.25;;;8.40;86.50;;;;;;6128371;23;20381;-93
2021/01/21 06:34:39;;;;;;;14.80;0.43;;;8.40;86.60;;;;;;6168602;23;20008;-91
2021/01/21 06:37:26;;;;;;;0.05;0.00;;;8.40;86.60;;;;;;6168185;23;20392;-92
2021/01/21 06:40:08;;;;;;;0.00;0.00;;;8.40;86.50;;;;;;6163024;23;20220;-93
2021/01/21 06:43:04;;;;;;;0.45;0.13;;;8.40;86.50;;;;;;6190288;23;20001;-91
2021/01/21 06:45:33;;;;;;;0.90;0.10;;;8.40;86.50;;;;;;6147521;23;20005;-91
2021/01/21 06:47:59;;;;;;;1.65;0.32;;;8.40;86.50;;;;;;6173717;23;20183;-93
2021/01/21 06:50:29;;;;;;;0.38;0.22;;;8.30;86.40;;;;;;6166848;23;20001;-92
2021/01/21 06:52:59;;;;;;;0.00;0.00;;;8.40;86.40;;;;;;6165380;23;20028;-91
2021/01/21 07:02:41;;;;;;;5.15;1.10;;;8.40;86.30;;;;;;6211900;23;20004;-93
2021/01/21 07:05:13;;;;;;;0.85;0.38;;;8.40;86.20;;;;;;6224507;23;20001;-93
2021/01/21 07:08:01;;;;;;;3.30;0.40;;;8.40;86.30;;;;;;6226772;22;20008;-93
2021/01/21 07:10:47;;;;;;;0.03;0.00;;;8.40;86.20;;;;;;6249743;23;20007;-91
2021/01/21 07:13:27;;;;;;;0.03;0.00;;;8.40;86.10;;;;;;6199393;23;20010;-93
2021/01/21 07:16:06;;;;;;;1.65;0.45;;;8.40;86.10;;;;;;6200821;23;20004;-91
2021/01/21 07:18:50;;;;;;;1.10;0.38;;;8.40;86.10;;;;;;6251685;23;20356;-94
2021/01/21 07:21:22;;;;;;;0.40;0.00;;;8.40;86.10;;;;;;6199086;23;20007;-92
2021/01/21 07:23:55;;;;;;;0.10;0.00;;;8.40;86.00;;;;;;6225064;23;19999;-93
2021/01/21 07:26:28;;;;;;;0.10;0.08;;;8.40;86.00;;;;;;6227212;23;20052;-93
2021/01/21 07:29:14;;;;;;;1.05;0.45;;;8.50;86.10;;;;;;6249940;23;20245;-91
2021/01/21 07:31:52;;;;;;;0.32;0.28;;;8.40;86.00;;;;;;6247476;23;20008;-93
2021/01/21 07:34:25;;;;;;;0.00;0.00;;;8.40;86.10;;;;;;6250359;23;20000;-94
2021/01/21 07:37:22;;;;;;;;;;;;;;;;;;;;;
2021/01/21 07:39:59;;;;;;;1.83;0.45;;;8.40;85.90;;;;;;6267546;22;20072;-91
2021/01/21 07:42:37;;;;;;;0.55;0.28;;;8.50;85.90;;;;;;6223189;23;20011;-92
2021/01/21 07:45:05;;;;;;;15.18;0.50;;;8.40;85.80;;;;;;6246943;22;20019;-92
2021/01/21 07:47:33;;;;;;;0.43;0.00;;;8.40;85.70;;;;;;6196885;23;20003;-92
2021/01/21 07:50:18;;;;;;;0.10;0.10;;;8.50;85.80;;;;;;6196973;23;19996;-92
2021/01/21 07:52:46;;;;;;;0.00;0.00;;;8.50;85.70;;;;;;6247134;23;20000;-91
2021/01/21 07:55:12;;;;;;;0.30;0.00;;;8.50;85.70;;;;;;6223259;23;20241;-93
2021/01/21 07:57:39;;;;;;;0.35;0.17;;;8.50;85.70;;;;;;6224768;23;19996;-91
2021/01/21 08:00:09;;;;;;;1.20;0.20;;;8.50;85.70;;;;;;6220066;22;20039;-93
2021/01/21 08:02:51;;;;;;;0.30;0.10;;;8.50;85.60;;;;;;6221526;23;20009;-93
2021/01/21 08:05:18;;;;;;;0.00;0.00;;;8.50;85.60;;;;;;6250218;23;19992;-92
2021/01/21 08:07:49;;;;;;;0.47;0.10;;;8.50;85.60;;;;;;6196784;23;20009;-89
2021/01/21 08:10:22;;;;;;;0.70;0.52;;;8.50;85.50;;;;;;6247168;23;20007;-92
2021/01/21 08:13:49;;;;;;;;;;;;;;;;;;;;;
2021/01/21 08:16:19;;;;;;;0.03;0.00;;;8.50;85.40;;;;;;6246585;23;20284;-92
2021/01/21 08:56:29;;;;;;;3.97;1.00;;;8.90;84.60;;;;;;6172519;23;20013;-95
2021/01/21 09:02:59;;;;;;;0.80;0.30;;;9.00;84.40;;;;;;6087160;23;20128;-93
2021/01/21 09:05:26;;;;;;;0.00;0.00;;;9.10;84.20;;;;;;6079154;23;20001;-93
2021/01/21 09:08:01;;;;;;;0.40;0.10;;;9.10;84.00;;;;;;6149479;23;20003;-93
2021/01/21 09:10:34;;;;;;;0.00;0.00;;;9.20;83.90;;;;;;6169306;23;20008;-94
2021/01/21 09:13:01;;;;;;;0.35;0.10;;;9.20;83.80;;;;;;6167656;23;20011;-94
2021/01/21 09:15:30;;;;;;;0.00;0.00;;;9.20;83.80;;;;;;6189755;23;20004;-91
2021/01/21 09:18:06;;;;;;;4.18;0.80;;;9.30;83.80;;;;;;6190526;23;20000;-94
2021/01/21 09:20:32;;;;;;;0.00;0.00;;;9.30;83.70;;;;;;6193513;23;20012;-88
2021/01/21 09:23:14;;;;;;;0.00;0.00;;;9.40;83.70;;;;;;6178983;23;20023;-90
2021/01/21 09:25:42;;;;;;;0.20;0.10;;;9.50;83.60;;;;;;6194846;23;20056;-92
2021/01/21 09:28:19;;;;;;;0.00;0.00;;;9.50;83.20;;;;;;6166455;23;20001;-94
2021/01/21 09:31:16;;;;;;;0.00;0.00;;;9.60;83.20;;;;;;6166407;23;20004;-93
2021/01/21 09:33:54;;;;;;;0.10;0.00;;;9.60;83.20;;;;;;6171238;23;20415;-92
2021/01/21 09:36:25;;;;;;;0.00;0.00;;;9.60;83.20;;;;;;6167801;23;20009;-89
2021/01/21 09:39:17;;;;;;;0.30;0.20;;;9.70;83.20;;;;;;6168581;23;20368;-94
2021/01/21 09:42:29;;;;;;;0.30;0.10;;;9.70;83.30;;;;;;6195640;23;20008;-94
2021/01/21 09:45:04;;;;;;;;;;;9.70;83.20;;;;;;6190846;23;20001;-93
2021/01/21 09:47:33;;;;;;;0.00;0.00;;;9.70;83.00;;;;;;6196940;23;19904;-95
2021/01/21 09:56:19;;;;;;;0.00;0.00;;;9.90;82.70;;;;;;6203646;23;20237;-92
2021/01/21 09:58:47;;;;;;;0.22;0.20;;;10.00;82.60;;;;;;6167380;23;20000;-92
2021/01/21 10:01:43;;;;;;;0.10;0.00;;;10.00;82.60;;;;;;6147344;23;20031;-94
2021/01/21 10:04:09;;;;;;;0.00;0.00;;;10.10;82.60;;;;;;6173573;23;20272;-93
2021/01/21 10:10:11;;;;;;;0.10;0.10;;;10.10;82.50;;;;;;6083691;23;20021;-91
2021/01/21 10:12:37;;;;;;;0.60;0.22;;;10.10;82.60;;;;;;6169050;23;20004;-90
2021/01/21 10:15:16;;;;;;;0.22;0.20;;;10.00;82.60;;;;;;6154400;23;20000;-92
2021/01/21 10:17:42;;;;;;;0.00;0.00;;;10.10;82.70;;;;;;6171415;23;20012;-91
2021/01/21 10:20:10;;;;;;;0.00;0.00;;;10.10;82.60;;;;;;6197094;23;20008;-93
2021/01/21 10:22:36;;;;;;;0.03;0.00;;;10.10;82.60;;;;;;6169340;23;20008;-82
2021/01/21 10:25:03;;;;;;;0.10;0.10;;;10.10;82.60;;;;;;6170812;23;19993;-93
2021/01/21 10:27:37;;;;;;;0.00;0.00;;;10.20;82.80;;;;;;6196311;23;20000;-95
2021/01/21 10:30:04;;;;;;;0.10;0.10;;;10.20;82.80;;;;;;6195665;23;20016;-94
2021/01/21 10:32:46;;;;;;;0.55;0.10;;;10.20;82.70;;;;;;6166861;23;20363;-93
2021/01/21 10:35:22;;;;;;;0.00;0.00;;;10.20;82.80;;;;;;6167489;23;20001;-93
2021/01/21 10:37:49;;;;;;;0.32;0.05;;;10.10;82.60;;;;;;6170973;23;20005;-93
2021/01/21 10:40:16;;;;;;;1.55;0.28;;;10.20;82.70;;;;;;6170928;23;20005;-92
2021/01/21 10:42:42;;;;;;;0.00;0.00;;;10.20;82.70;;;;;;6171784;23;20009;-94
2021/01/21 10:45:11;;;;;;;0.00;0.00;;;10.20;82.80;;;;;;6149639;23;20001;-93
2021/01/21 10:47:46;;;;;;;0.00;0.00;;;10.20;82.90;;;;;;6197687;23;20004;-94
2021/01/21 10:50:13;;;;;;;3.40;0.57;;;10.10;82.80;;;;;;6177118;23;19996;-94
2021/01/21 10:52:39;;;;;;;0.00;0.00;;;10.20;83.00;;;;;;6195943;23;20007;-88
2021/01/21 10:55:06;;;;;;;0.63;0.17;;;10.20;83.10;;;;;;6144111;23;20016;-91
2021/01/21 10:57:35;;;;;;;0.00;0.00;;;10.10;83.10;;;;;;6167851;23;20254;-90
2021/01/21 11:00:01;;;;;;;0.15;0.10;;;10.10;83.20;;;;;;6192951;23;20003;-92
2021/01/21 11:02:28;;;;;;;0.00;0.00;;;10.10;83.30;;;;;;6165654;23;20004;-93
2021/01/21 11:04:55;;;;;;;0.20;0.03;;;10.10;83.40;;;;;;6169055;23;20015;-93
2021/01/21 11:07:21;;;;;;;1.60;0.20;;;10.10;83.50;;;;;;6169304;23;20000;-93
2021/01/21 11:09:48;;;;;;;0.00;0.00;;;10.10;83.50;;;;;;6194216;23;20005;-94
2021/01/21 11:12:16;;;;;;;0.28;0.20;;;10.10;83.50;;;;;;6170106;23;20007;-93
2021/01/21 11:14:46;;;;;;;0.00;0.00;;;10.10;83.50;;;;;;6168314;23;20011;-91
2021/01/21 11:17:13;;;;;;;0.10;0.10;;;10.10;83.50;;;;;;6168921;23;20017;-94
2021/01/21 11:19:39;;;;;;;0.00;0.00;;;10.10;83.50;;;;;;6194817;23;20500;-94
2021/01/21 11:22:05;;;;;;;0.00;0.00;;;10.10;83.50;;;;;;6144110;23;19997;-94
2021/01/21 11:24:32;;;;;;;0.20;0.13;;;10.10;83.60;;;;;;6193312;23;20253;-90
2021/01/21 11:26:58;;;;;;;0.05;0.05;;;10.20;83.70;;;;;;6218401;23;19993;-88
2021/01/21 11:29:24;;;;;;;0.00;0.00;;;10.20;83.70;;;;;;6195188;23;20005;-87
2021/01/21 11:32:11;;;;;;;;;;;;;;;;;;;;;
2021/01/21 11:34:42;;;;;;;0.00;0.00;;;10.20;83.60;;;;;;6144253;23;20008;-94
2021/01/21 11:37:13;;;;;;;0.00;0.00;;;10.30;83.60;;;;;;6145950;23;20000;-90
2021/01/21 11:39:39;;;;;;;0.00;0.00;;;10.30;83.60;;;;;;6164810;23;20031;-94
2021/01/21 11:42:05;;;;;;;0.00;0.00;;;10.30;83.60;;;;;;6165152;23;20012;-93
2021/01/21 11:44:32;;;;;;;0.00;0.00;;;10.30;83.60;;;;;;6164494;23;20396;-93
2021/01/21 11:46:58;;;;;;;0.00;0.00;;;10.30;83.70;;;;;;6163755;23;20008;-93
2021/01/21 11:49:24;;;;;;;0.00;0.00;;;10.30;83.80;;;;;;6164675;23;20035;-87
2021/01/21 11:51:51;;;;;;;0.03;0.03;;;10.20;83.90;;;;;;6164671;23;20012;-93
2021/01/21 11:54:17;;;;;;;0.05;0.00;;;10.20;83.90;;;;;;6163586;23;20021;-89
2021/01/21 11:56:44;;;;;;;0.00;0.00;;;10.20;84.00;;;;;;6164614;23;19993;-93
2021/01/21 11:59:10;;;;;;;0.00;0.00;;;10.20;84.10;;;;;;6164879;23;19996;-87
2021/01/21 12:01:36;;;;;;;0.00;0.00;;;10.20;84.10;;;;;;6216111;23;20012;-87
2021/01/21 12:04:03;;;;;;;2.55;0.00;;;10.20;84.10;;;;;;6165539;23;19996;-88
2021/01/21 12:06:29;;;;;;;0.00;0.00;;;10.20;84.10;;;;;;6163793;23;20008;-94
2021/01/21 12:08:56;;;;;;;17.73;0.52;;;10.20;84.10;;;;;;6171632;23;20369;-89
2021/01/21 12:11:22;;;;;;;0.00;0.00;;;10.20;84.20;;;;;;6166842;23;20379;-88
2021/01/21 12:13:48;;;;;;;0.20;0.20;;;10.30;84.30;;;;;;6189042;23;20008;-91
2021/01/21 12:16:15;;;;;;;0.00;0.00;;;10.30;84.30;;;;;;6219491;23;20013;-87
2021/01/21 12:18:41;;;;;;;0.00;0.00;;;10.30;84.30;;;;;;6193805;23;20019;-86
2021/01/21 12:21:11;;;;;;;0.10;0.05;;;10.30;84.30;;;;;;6166177;23;20015;-87
2021/01/21 12:23:37;;;;;;;0.00;0.00;;;10.30;84.30;;;;;;6213562;23;20403;-89
2021/01/21 12:26:06;;;;;;;0.00;0.00;;;10.30;84.30;;;;;;6190695;23;20004;-86
2021/01/21 12:28:36;;;;;;;0.00;0.00;;;10.30;84.30;;;;;;6191111;23;19993;-90
2021/01/21 12:31:03;;;;;;;0.00;0.00;;;10.40;84.30;;;;;;6188862;23;20023;-91
2021/01/21 12:33:30;;;;;;;0.35;0.10;;;10.40;84.30;;;;;;6216452;23;19997;-90
2021/01/21 12:35:56;;;;;;;0.00;0.00;;;10.40;84.30;;;;;;6216819;23;19999;-94
2021/01/21 12:38:23;;;;;;;0.00;0.00;;;10.40;84.30;;;;;;6191338;23;20000;-94
2021/01/21 12:40:49;;;;;;;0.00;0.00;;;10.50;84.40;;;;;;6140630;23;20261;-92
2021/01/21 12:43:16;;;;;;;0.00;0.00;;;10.50;84.30;;;;;;6187881;23;20005;-90
2021/01/21 12:45:44;;;;;;;0.15;0.00;;;10.50;84.30;;;;;;6188170;23;20415;-92
2021/01/21 12:48:13;;;;;;;0.00;0.00;;;10.50;84.30;;;;;;6188701;23;20007;-93
2021/01/21 12:50:40;;;;;;;0.00;0.00;;;10.60;84.40;;;;;;6218495;23;20251;-87
2021/01/21 12:53:07;;;;;;;0.00;0.00;;;10.60;84.40;;;;;;6167573;23;20249;-95
2021/01/21 12:55:33;;;;;;;0.55;0.00;;;10.60;84.40;;;;;;6160499;23;20050;-87
2021/01/21 12:57:59;;;;;;;0.00;0.00;;;10.60;84.40;;;;;;6185431;23;20005;-89
2021/01/21 13:00:26;;;;;;;0.10;0.03;;;10.60;84.50;;;;;;6185697;23;20017;-92
2021/01/21 13:02:52;;;;;;;0.08;0.05;;;10.60;84.60;;;;;;6186418;23;20012;-88
2021/01/21 13:05:19;;;;;;;0.00;0.00;;;10.60;84.70;;;;;;6185784;23;20024;-89
2021/01/21 13:07:45;;;;;;;0.00;0.00;;;10.60;84.70;;;;;;6157672;23;20004;-86
2021/01/21 13:10:12;;;;;;;0.00;0.00;;;10.60;84.70;;;;;;6183593;23;20048;-87
2021/01/21 13:12:39;;;;;;;0.17;0.00;;;10.60;84.70;;;;;;6184145;23;20001;-88
2021/01/21 13:15:06;;;;;;;0.25;0.00;;;10.70;84.70;;;;;;6183685;23;20001;-90
2021/01/21 13:17:32;;;;;;;0.00;0.00;;;10.70;84.60;;;;;;6188581;23;19994;-90
2021/01/21 13:20:03;;;;;;;0.00;0.00;;;10.70;84.60;;;;;;6165078;23;20023;-89
2021/01/21 13:22:38;;;;;;;0.00;0.00;;;10.80;84.60;;;;;;6169324;23;20400;-92
2021/01/21 13:25:05;;;;;;;0.00;0.00;;;10.80;84.50;;;;;;6161605;23;20005;-88
2021/01/21 13:27:32;;;;;;;0.00;0.00;;;10.90;84.40;;;;;;6168198;23;20025;-90
2021/01/21 13:29:58;;;;;;;0.10;0.03;;;10.90;84.20;;;;;;6218229;23;20470;-88
2021/01/21 13:32:25;;;;;;;0.88;0.22;;;11.00;84.30;;;;;;6217032;23;20012;-88
2021/01/21 13:34:54;;;;;;;0.10;0.10;;;11.00;84.20;;;;;;6215160;23;20508;-92
2021/01/21 13:37:53;;;;;;;;;;;;;;;;;;;;;
2021/01/21 13:40:20;;;;;;;2.47;0.45;;;11.10;84.20;;;;;;6214838;23;20012;-89
2021/01/21 13:42:47;;;;;;;0.00;0.00;;;11.10;84.10;;;;;;6188687;23;20005;-86
2021/01/21 13:45:17;;;;;;;0.10;0.00;;;11.10;84.10;;;;;;6174069;23;20015;-87
2021/01/21 13:47:43;;;;;;;0.57;0.08;;;11.10;84.10;;;;;;6192157;23;20276;-89
2021/01/21 13:50:14;;;;;;;0.00;0.00;;;11.20;84.10;;;;;;6214127;23;20011;-87
2021/01/21 13:52:41;;;;;;;0.10;0.00;;;11.20;84.10;;;;;;6215302;23;20005;-91
2021/01/21 13:55:07;;;;;;;0.08;0.08;;;11.20;84.20;;;;;;6215002;23;20126;-85
2021/01/21 13:57:34;;;;;;;0.00;0.00;;;11.10;84.30;;;;;;6211389;23;20004;-88
2021/01/21 14:00:00;;;;;;;0.00;0.00;;;11.10;84.30;;;;;;6212404;23;19997;-89
2021/01/21 14:02:26;;;;;;;0.00;0.00;;;11.10;84.40;;;;;;6212085;23;20012;-88
2021/01/21 14:04:53;;;;;;;0.00;0.00;;;11.10;84.50;;;;;;6212965;23;20001;-88
2021/01/21 14:07:19;;;;;;;0.15;0.00;;;11.10;84.50;;;;;;6211259;23;20000;-85
2021/01/21 14:09:45;;;;;;;0.00;0.00;;;11.10;84.60;;;;;;6212175;23;20007;-87
2021/01/21 14:12:12;;;;;;;0.00;0.00;;;11.10;84.80;;;;;;6187865;23;20001;-86
2021/01/21 14:14:38;;;;;;;0.00;0.00;;;11.00;84.90;;;;;;6216476;23;20008;-88
2021/01/21 14:17:04;;;;;;;0.00;0.00;;;11.00;85.10;;;;;;6214316;23;20276;-90